createdAt,value
2023-05-28T00:01:25.779Z,10.82
2023-05-28T00:06:27.531Z,10.92
2023-05-28T00:11:29.214Z,10.67
2023-05-28T00:16:31.004Z,10.81
2023-05-28T00:21:34.405Z,10.85
2023-05-28T00:26:38.122Z,10.59
2023-05-28T00:31:39.903Z,10.64
2023-05-28T00:36:41.643Z,10.49
2023-05-28T00:41:43.653Z,10.49
2023-05-28T00:46:46.748Z,10.34
2023-05-28T00:51:48.503Z,10.03
2023-05-28T00:56:52.196Z,10.04
2023-05-28T01:01:54.724Z,10.16
2023-05-28T01:06:58.123Z,10.01
2023-05-28T01:12:00.634Z,10.13
2023-05-28T01:17:02.378Z,10.22
2023-05-28T01:22:06.001Z,10.13
2023-05-28T01:27:08.291Z,9.93
2023-05-28T01:32:09.992Z,9.80
2023-05-28T01:37:17.233Z,9.60
2023-05-28T01:42:19.481Z,9.55
2023-05-28T01:47:22.137Z,9.44
2023-05-28T01:52:23.941Z,9.48
2023-05-28T01:57:25.812Z,9.57
2023-05-28T02:02:28.015Z,9.43
2023-05-28T02:07:29.778Z,9.43
2023-05-28T02:12:31.525Z,9.66
2023-05-28T02:17:33.403Z,9.41
2023-05-28T02:22:35.157Z,9.04
2023-05-28T02:27:37.015Z,8.85
2023-05-28T02:32:38.810Z,8.83
2023-05-28T02:37:40.546Z,8.99
2023-05-28T02:42:45.634Z,8.92
2023-05-28T02:47:48.976Z,8.81
2023-05-28T02:52:52.987Z,8.79
2023-05-28T02:57:54.708Z,8.91
2023-05-28T03:02:57.686Z,8.78
2023-05-28T03:07:59.969Z,8.74
2023-05-28T03:13:03.006Z,8.77
2023-05-28T03:18:06.875Z,8.58
2023-05-28T03:23:12.722Z,8.50
2023-05-28T03:28:33.453Z,8.45
2023-05-28T03:33:51.632Z,8.50
2023-05-28T03:38:53.469Z,8.54
2023-05-28T03:43:58.096Z,8.53
2023-05-28T03:48:59.964Z,8.67
2023-05-28T03:54:02.921Z,8.71
2023-05-28T03:59:04.812Z,8.77
2023-05-28T04:04:06.852Z,8.95
2023-05-28T04:09:09.701Z,8.88
2023-05-28T04:14:11.666Z,9.05
2023-05-28T04:19:13.415Z,9.10
2023-05-28T04:24:15.279Z,9.44
2023-05-28T04:29:17.003Z,9.49
2023-05-28T04:34:18.826Z,9.93
2023-05-28T04:39:22.745Z,9.92
2023-05-28T04:44:27.080Z,9.85
2023-05-28T04:49:30.686Z,10.08
2023-05-28T04:54:32.743Z,10.40
2023-05-28T04:59:36.088Z,10.53
2023-05-28T05:04:37.966Z,10.70
2023-05-28T05:09:40.477Z,10.72
2023-05-28T05:14:42.514Z,10.66
2023-05-28T05:19:44.663Z,11.03
2023-05-28T05:24:49.312Z,11.25
2023-05-28T05:29:51.611Z,11.74
2023-05-28T05:34:53.724Z,11.83
2023-05-28T05:40:01.428Z,12.23
2023-05-28T05:45:22.822Z,13.38
2023-05-28T05:50:27.090Z,13.45
2023-05-28T05:55:29.762Z,13.26
2023-05-28T06:00:31.904Z,14.21
2023-05-28T06:05:37.024Z,14.89
2023-05-28T06:10:59.014Z,14.98
2023-05-28T06:16:01.118Z,15.55
2023-05-28T06:21:04.590Z,15.46
2023-05-28T06:26:08.910Z,16.02
2023-05-28T06:31:11.299Z,16.00
2023-05-28T06:36:13.706Z,16.16
2023-05-28T06:41:17.164Z,16.20
2023-05-28T06:46:23.756Z,16.79
2023-05-28T06:51:26.096Z,17.67
2023-05-28T06:56:28.794Z,17.23
2023-05-28T07:01:50.178Z,17.81
2023-05-28T07:07:16.538Z,18.00
2023-05-28T07:12:19.614Z,18.69
2023-05-28T07:17:28.589Z,18.45
2023-05-28T07:22:30.757Z,18.62
2023-05-28T07:27:32.802Z,19.26
2023-05-28T07:32:35.024Z,19.24
2023-05-28T07:37:39.849Z,19.48
2023-05-28T07:42:42.752Z,20.28
2023-05-28T07:47:47.097Z,20.63
2023-05-28T07:53:09.054Z,20.07
2023-05-28T07:58:15.504Z,20.52
2023-05-28T08:03:20.881Z,19.71
2023-05-28T08:08:25.104Z,19.94
2023-05-28T08:13:27.228Z,20.53
2023-05-28T08:18:31.079Z,20.86
2023-05-28T08:23:35.717Z,21.15
2023-05-28T08:28:40.236Z,21.40
2023-05-28T08:33:42.500Z,21.52
2023-05-28T08:38:44.831Z,21.65
2023-05-28T08:43:48.927Z,21.16
2023-05-28T08:48:52.308Z,22.05
2023-05-28T08:53:55.653Z,22.04
2023-05-28T08:59:06.242Z,22.16
2023-05-28T09:04:10.114Z,22.50
2023-05-28T09:09:16.090Z,22.96
2023-05-28T09:14:24.799Z,22.94
2023-05-28T09:19:29.617Z,23.22
2023-05-28T09:24:33.474Z,23.67
2023-05-28T09:35:31.691Z,23.83
2023-05-28T09:40:40.549Z,24.42
2023-05-28T09:45:44.600Z,24.53
2023-05-28T09:50:53.350Z,23.88
2023-05-28T09:56:04.363Z,24.57
2023-05-28T10:01:16.301Z,24.24
2023-05-28T10:06:28.805Z,24.46
2023-05-28T10:11:41.865Z,24.29
2023-05-28T10:16:51.523Z,24.21
2023-05-28T10:21:56.714Z,25.14
2023-05-28T10:26:58.555Z,25.19
2023-05-28T10:32:01.902Z,25.26
2023-05-28T10:37:08.138Z,25.24
2023-05-28T10:42:14.415Z,25.22
2023-05-28T10:47:18.293Z,25.07
2023-05-28T10:52:23.341Z,25.18
2023-05-28T10:57:25.115Z,24.15
2023-05-28T11:02:29.120Z,24.58
2023-05-28T11:07:31.697Z,24.85
2023-05-28T11:12:36.986Z,25.71
2023-05-28T11:17:43.980Z,24.66
2023-05-28T11:22:46.045Z,25.56
2023-05-28T11:27:48.129Z,25.49
2023-05-28T11:32:50.776Z,25.42
2023-05-28T11:37:54.227Z,25.23
2023-05-28T11:42:59.764Z,25.59
2023-05-28T11:48:01.689Z,25.59
2023-05-28T11:53:04.617Z,25.73
2023-05-28T11:58:06.938Z,25.26
2023-05-28T12:03:12.070Z,24.94
2023-05-28T12:08:13.947Z,25.51
2023-05-28T12:13:16.405Z,25.60
2023-05-28T12:18:21.619Z,25.34
2023-05-28T12:23:23.349Z,25.12
2023-05-28T12:28:25.874Z,25.03
2023-05-28T12:33:27.910Z,25.04
2023-05-28T12:38:29.674Z,24.84
2023-05-28T12:43:31.498Z,24.87
2023-05-28T12:48:33.262Z,25.14
2023-05-28T12:53:35.060Z,25.54
2023-05-28T12:58:36.775Z,25.09
2023-05-28T13:03:38.958Z,24.31
2023-05-28T13:08:40.727Z,24.66
2023-05-28T13:13:42.475Z,24.77
2023-05-28T13:18:46.016Z,24.94
2023-05-28T13:23:47.839Z,25.54
2023-05-28T13:28:49.648Z,25.41
2023-05-28T13:33:51.527Z,24.98
2023-05-28T13:38:55.158Z,25.11
2023-05-28T13:43:57.199Z,25.15
2023-05-28T13:48:58.925Z,24.99
2023-05-28T13:54:00.682Z,24.70
2023-05-28T13:59:02.594Z,24.48
2023-05-28T14:04:04.725Z,24.76
2023-05-28T14:09:06.752Z,24.82
2023-05-28T14:14:08.491Z,24.70
2023-05-28T14:19:10.458Z,25.04
2023-05-28T14:24:12.240Z,24.67
2023-05-28T14:29:14.209Z,24.33
2023-05-28T14:34:15.994Z,24.80
2023-05-28T14:39:17.733Z,25.19
2023-05-28T14:44:19.462Z,25.76
2023-05-28T14:49:21.321Z,25.77
2023-05-28T14:54:24.014Z,25.38
2023-05-28T14:59:26.787Z,25.01
2023-05-28T15:04:28.491Z,25.34
2023-05-28T15:09:30.230Z,25.70
2023-05-28T15:14:32.117Z,26.11
2023-05-28T15:19:35.597Z,25.95
2023-05-28T15:24:38.328Z,26.22
2023-05-28T15:29:45.321Z,25.72
2023-05-28T15:34:47.164Z,25.82
2023-05-28T15:39:49.227Z,26.19
2023-05-28T15:44:51.198Z,26.12
2023-05-28T15:49:53.007Z,26.20
2023-05-28T15:54:54.921Z,26.03
2023-05-28T15:59:56.907Z,25.77
2023-05-28T16:04:58.926Z,25.33
2023-05-28T16:10:00.874Z,25.14
2023-05-28T16:15:07.204Z,25.11
2023-05-28T16:20:13.265Z,24.75
2023-05-28T16:25:15.578Z,24.40
2023-05-28T16:30:18.448Z,24.29
2023-05-28T16:35:20.762Z,24.23
2023-05-28T16:40:22.925Z,24.15
2023-05-28T16:45:24.970Z,24.11
2023-05-28T16:50:27.008Z,23.57
2023-05-28T16:55:29.014Z,23.07
2023-05-28T17:00:32.101Z,22.92
2023-05-28T17:05:34.225Z,22.59
2023-05-28T17:10:36.067Z,22.52
2023-05-28T17:15:38.019Z,22.37
2023-05-28T17:20:40.072Z,22.40
2023-05-28T17:25:42.083Z,22.17
2023-05-28T17:30:43.938Z,22.24
2023-05-28T17:35:45.734Z,22.25
2023-05-28T17:40:49.050Z,22.12
2023-05-28T17:45:54.952Z,21.98
2023-05-28T17:50:57.391Z,21.67
2023-05-28T17:55:59.328Z,21.48
2023-05-28T18:01:01.876Z,21.34
2023-05-28T18:06:04.552Z,21.57
2023-05-28T18:11:06.477Z,21.20
2023-05-28T18:16:08.554Z,20.83
2023-05-28T18:21:11.932Z,20.75
2023-05-28T18:26:14.127Z,20.58
2023-05-28T18:31:16.164Z,20.37
2023-05-28T18:36:18.000Z,20.32
2023-05-28T18:41:19.887Z,20.36
2023-05-28T18:46:21.857Z,19.96
2023-05-28T18:51:24.311Z,19.73
2023-05-28T18:56:27.642Z,19.30
2023-05-28T19:01:32.970Z,19.57
2023-05-28T19:06:37.792Z,19.17
2023-05-28T19:11:39.743Z,18.92
2023-05-28T19:16:41.645Z,18.88
2023-05-28T19:21:43.653Z,18.87
2023-05-28T19:26:45.659Z,18.85
2023-05-28T19:31:47.446Z,18.76
2023-05-28T19:36:50.518Z,18.39
2023-05-28T19:41:52.474Z,18.38
2023-05-28T19:46:55.508Z,18.29
2023-05-28T19:51:57.830Z,17.98
2023-05-28T19:56:59.886Z,17.77
2023-05-28T20:02:01.811Z,17.56
2023-05-28T20:07:03.659Z,17.32
2023-05-28T20:12:05.703Z,17.26
2023-05-28T20:17:10.076Z,17.15
2023-05-28T20:22:12.142Z,17.17
2023-05-28T20:27:14.050Z,16.89
2023-05-28T20:32:15.778Z,16.77
2023-05-28T20:37:17.902Z,16.25
2023-05-28T20:42:20.107Z,16.40
2023-05-28T20:47:22.153Z,16.34
2023-05-28T20:52:24.347Z,16.18
2023-05-28T20:57:49.444Z,16.09
2023-05-28T21:02:56.824Z,15.93
2023-05-28T21:07:58.941Z,15.84
2023-05-28T21:13:00.945Z,15.59
2023-05-28T21:18:02.692Z,15.44
2023-05-28T21:23:04.473Z,15.24
2023-05-28T21:28:07.525Z,15.04
2023-05-28T21:33:09.346Z,14.79
2023-05-28T21:38:11.156Z,14.85
2023-05-28T21:43:13.068Z,14.75
2023-05-28T21:48:15.249Z,14.72
2023-05-28T21:53:17.233Z,14.57
2023-05-28T21:58:19.207Z,14.49
2023-05-28T22:03:21.071Z,14.52
2023-05-28T22:08:22.874Z,14.56
2023-05-28T22:13:26.137Z,14.25
2023-05-28T22:18:27.806Z,14.07
2023-05-28T22:23:29.738Z,14.19
2023-05-28T22:28:31.493Z,14.10
2023-05-28T22:33:33.282Z,13.84
2023-05-28T22:38:36.354Z,13.68
2023-05-28T22:43:38.105Z,13.55
2023-05-28T22:48:40.629Z,13.46
2023-05-28T22:53:42.461Z,13.34
2023-05-28T22:58:44.228Z,13.46
2023-05-28T23:03:46.536Z,13.67
2023-05-28T23:08:48.354Z,13.44
2023-05-28T23:13:50.105Z,13.53
2023-05-28T23:18:53.080Z,13.43
2023-05-28T23:23:54.982Z,13.30
2023-05-28T23:28:56.751Z,13.14
2023-05-28T23:33:58.591Z,12.96
2023-05-28T23:39:00.489Z,12.88
2023-05-28T23:44:02.214Z,12.77
2023-05-28T23:49:04.451Z,12.54
2023-05-28T23:54:06.319Z,12.39
2023-05-28T23:59:08.634Z,12.43
